Time;durP1;ratioP1;P1;durP2;ratioP2;P2;SDS_P1;SDS_P2;PMS_P1;PMS_P2;Temp;Humidity;BMP_temperature;BMP_pressure;BME280_temperature;BME280_humidity;BME280_pressure;Samples;Min_cycle;Max_cycle;Signal;HPM_P1;HPM_P2
2021/08/22 00:01:09;;;;;;;6.03;3.63;;;;;;;17.48;77.82;96012.88;5032094;28;20250;-76
2021/08/22 00:03:35;;;;;;;7.80;2.88;;;;;;;17.27;78.89;95997.81;5030772;28;20170;-77
2021/08/22 00:06:00;;;;;;;3.17;1.83;;;;;;;16.88;78.78;95979.63;5030323;28;20187;-76
2021/08/22 00:08:25;;;;;;;4.70;2.22;;;;;;;16.85;79.06;95978.16;5013472;28;20222;-77
2021/08/22 00:10:51;;;;;;;2.30;1.52;;;;;;;16.64;79.36;95976.16;5029830;28;20208;-77
2021/08/22 00:13:17;;;;;;;4.63;1.90;;;;;;;16.38;79.81;95967.81;5029340;28;20654;-76
2021/08/22 00:15:42;;;;;;;3.80;2.20;;;;;;;16.29;78.77;95946.06;5030000;28;20269;-75
2021/08/22 00:18:07;;;;;;;3.20;2.17;;;;;;;16.19;79.31;95942.06;5046384;28;20226;-76
2021/08/22 00:20:33;;;;;;;4.20;2.28;;;;;;;16.02;80.90;95921.19;5030149;28;20240;-76
2021/08/22 00:22:58;;;;;;;3.97;2.50;;;;;;;16.13;80.76;95917.34;5015306;28;20187;-76
2021/08/22 00:25:24;;;;;;;6.28;3.42;;;;;;;16.20;80.16;95899.13;5033692;28;20650;-77
2021/08/22 00:27:49;;;;;;;5.05;3.83;;;;;;;16.19;79.76;95889.66;5033560;28;20281;-76
2021/08/22 00:30:14;;;;;;;5.35;3.15;;;;;;;16.17;80.03;95875.88;5033370;28;20700;-76
2021/08/22 00:32:39;;;;;;;3.80;3.38;;;;;;;16.32;79.13;95858.41;5034191;28;20228;-76
2021/08/22 00:35:05;;;;;;;4.80;3.17;;;;;;;16.30;78.58;95863.03;5034764;28;20222;-76
2021/08/22 00:37:31;;;;;;;4.47;3.30;;;;;;;16.38;77.93;95849.88;5049720;28;20289;-76
2021/08/22 00:39:57;;;;;;;6.05;3.65;;;;;;;16.41;78.23;95852.13;5050906;28;20234;-75
2021/08/22 00:42:23;;;;;;;3.80;3.40;;;;;;;16.38;78.30;95842.00;5035878;28;20185;-76
2021/08/22 00:44:49;;;;;;;4.70;3.60;;;;;;;16.43;77.36;95835.25;5053102;28;20177;-76
2021/08/22 00:47:14;;;;;;;5.95;3.92;;;;;;;16.42;77.40;95830.97;5035440;28;20207;-75
2021/08/22 00:49:39;;;;;;;5.32;3.42;;;;;;;16.43;77.05;95821.31;5034201;28;20244;-76
2021/08/22 00:52:05;;;;;;;3.97;3.60;;;;;;;16.40;77.94;95821.66;5032416;28;20206;-76
2021/08/22 00:54:34;;;;;;;3.65;3.17;;;;;;;16.45;77.73;95811.47;5034230;28;20178;-76
2021/08/22 00:56:59;;;;;;;4.03;3.63;;;;;;;16.40;77.72;95800.69;5032407;28;20229;-77
2021/08/22 00:59:24;;;;;;;5.43;3.72;;;;;;;16.31;79.07;95793.91;5050786;28;20209;-75
2021/08/22 01:01:53;;;;;;;4.97;3.58;;;;;;;16.20;78.77;95786.47;5052295;28;20724;-76
2021/08/22 01:04:22;;;;;;;4.32;3.50;;;;;;;16.33;78.34;95776.19;5052670;28;20689;-76
2021/08/22 01:07:10;;;;;;;4.78;4.20;;;;;;;16.28;78.32;95765.44;5052744;28;20235;-75
2021/08/22 01:09:38;;;;;;;4.13;3.60;;;;;;;16.32;76.28;95759.66;5046925;28;20285;-75
2021/08/22 01:12:07;;;;;;;4.43;3.65;;;;;;;16.34;75.13;95748.97;5052312;28;20178;-76
2021/08/22 01:14:36;;;;;;;4.63;3.80;;;;;;;16.27;74.90;95741.03;5035902;28;20181;-76
2021/08/22 01:17:02;;;;;;;4.72;4.03;;;;;;;16.32;74.97;95743.94;5052537;28;20197;-75
2021/08/22 01:19:34;;;;;;;6.05;3.58;;;;;;;16.27;74.97;95735.81;5035775;28;20198;-75
2021/08/22 01:22:01;;;;;;;4.90;3.75;;;;;;;16.26;74.99;95733.38;5053066;28;20181;-76
2021/08/22 01:24:27;;;;;;;4.55;4.05;;;;;;;16.25;74.54;95724.66;5035668;28;20264;-77
2021/08/22 01:26:54;;;;;;;3.95;3.53;;;;;;;16.28;74.52;95723.50;5052527;28;20366;-75
2021/08/22 01:29:20;;;;;;;4.30;3.67;;;;;;;16.32;73.97;95728.19;5052512;28;20173;-76
2021/08/22 01:31:50;;;;;;;6.10;4.10;;;;;;;16.20;74.44;95737.50;5034961;28;20209;-75
2021/08/22 01:34:16;;;;;;;4.85;4.05;;;;;;;16.24;73.82;95740.56;5052012;28;20530;-76
2021/08/22 01:36:42;;;;;;;4.70;3.78;;;;;;;16.25;74.43;95735.16;5052158;28;20190;-76
2021/08/22 01:39:09;;;;;;;4.75;3.95;;;;;;;16.23;74.37;95736.31;5035565;28;20699;-76
2021/08/22 01:41:34;;;;;;;5.38;3.60;;;;;;;16.29;74.02;95722.53;5050204;28;20194;-76
2021/08/22 01:44:00;;;;;;;4.63;4.13;;;;;;;16.29;73.78;95720.72;5052040;28;20173;-76
2021/08/22 01:46:30;;;;;;;5.18;4.05;;;;;;;16.33;73.89;95726.41;5035106;28;20805;-76
2021/08/22 01:48:56;;;;;;;3.63;3.30;;;;;;;16.29;73.83;95717.28;5051752;28;20174;-76
2021/08/22 01:51:25;;;;;;;4.10;3.65;;;;;;;16.34;73.04;95723.63;5051188;28;20175;-76
2021/08/22 01:53:50;;;;;;;4.05;3.65;;;;;;;16.35;73.09;95732.28;5051459;28;20634;-76
2021/08/22 01:56:18;;;;;;;4.03;3.42;;;;;;;16.31;74.25;95720.53;5051876;28;20185;-76
2021/08/22 01:58:43;;;;;;;3.78;3.15;;;;;;;16.26;75.05;95726.31;5052836;28;20767;-75
2021/08/22 02:01:08;;;;;;;5.75;3.88;;;;;;;16.17;76.99;95727.38;5051492;28;20185;-75
2021/08/22 02:03:50;;;;;;;4.85;4.22;;;;;;;16.03;78.57;95734.22;5051410;28;20182;-76
2021/08/22 02:06:25;;;;;;;4.00;3.60;;;;;;;16.07;78.66;95730.22;5051498;28;20683;-76
2021/08/22 02:08:54;;;;;;;3.90;3.50;;;;;;;16.03;79.62;95721.09;5052826;28;20211;-76
2021/08/22 02:11:28;;;;;;;3.88;3.13;;;;;;;15.95;80.54;95715.94;5034769;28;20676;-77
2021/08/22 02:13:55;;;;;;;5.28;3.88;;;;;;;15.84;81.05;95724.22;5051406;28;20583;-76
2021/08/22 02:16:24;;;;;;;6.88;3.97;;;;;;;15.70;81.84;95728.41;5052704;28;20174;-76
2021/08/22 02:18:52;;;;;;;3.65;3.33;;;;;;;15.58;82.32;95735.81;5051291;28;20198;-76
2021/08/22 02:21:19;;;;;;;4.82;3.67;;;;;;;15.62;82.62;95736.31;5034595;28;20184;-76
2021/08/22 02:23:44;;;;;;;4.57;3.75;;;;;;;15.59;82.33;95737.44;5050899;28;20173;-75
2021/08/22 02:26:09;;;;;;;3.90;3.47;;;;;;;15.69;82.21;95734.63;5051206;28;20514;-76
2021/08/22 02:28:35;;;;;;;3.85;3.38;;;;;;;15.63;82.59;95737.94;5050866;28;20202;-76
2021/08/22 02:31:00;;;;;;;4.38;3.85;;;;;;;15.59;82.70;95737.44;5034238;28;20554;-77
2021/08/22 02:33:26;;;;;;;4.85;3.90;;;;;;;15.58;82.79;95735.81;5033329;28;20227;-76
2021/08/22 02:35:51;;;;;;;4.22;3.80;;;;;;;15.55;83.27;95725.72;5052204;28;20208;-76
2021/08/22 02:38:16;;;;;;;3.90;3.50;;;;;;;15.59;82.61;95724.34;5033580;28;20201;-75
2021/08/22 02:40:42;;;;;;;4.32;3.92;;;;;;;15.56;83.15;95722.09;5032749;28;20182;-76
2021/08/22 02:43:07;;;;;;;4.20;3.80;;;;;;;15.54;83.35;95721.44;5050197;28;20739;-77
2021/08/22 02:45:33;;;;;;;4.00;3.60;;;;;;;15.43;83.69;95716.59;5050138;28;20658;-76
2021/08/22 02:47:59;;;;;;;4.15;3.20;;;;;;;15.52;83.10;95712.13;5050527;28;20194;-76
2021/08/22 02:50:25;;;;;;;5.20;3.78;;;;;;;15.41;83.21;95702.88;5033886;28;20199;-78
2021/08/22 02:52:50;;;;;;;4.15;3.75;;;;;;;15.41;82.87;95713.34;5050030;28;20193;-76
2021/08/22 02:55:16;;;;;;;4.63;3.88;;;;;;;15.43;82.69;95707.94;5050479;28;20181;-77
2021/08/22 02:57:42;;;;;;;5.13;4.20;;;;;;;15.34;83.07;95701.94;5033568;28;20283;-77
2021/08/22 03:00:08;;;;;;;3.92;3.38;;;;;;;15.34;83.42;95708.97;5051597;28;20202;-77
2021/08/22 03:02:34;;;;;;;5.65;3.85;;;;;;;15.28;83.24;95702.63;5049800;28;20196;-78
2021/08/22 03:04:59;;;;;;;5.05;3.42;;;;;;;15.32;82.84;95709.16;5067528;28;20263;-77
2021/08/22 03:07:24;;;;;;;3.92;3.60;;;;;;;15.25;83.30;95713.44;5050533;28;20190;-78
2021/08/22 03:09:49;;;;;;;4.97;4.35;;;;;;;15.29;82.83;95720.78;5051765;28;20231;-77
2021/08/22 03:12:15;;;;;;;9.43;3.78;;;;;;;15.27;83.16;95716.69;5050067;28;20224;-78
2021/08/22 03:14:40;;;;;;;4.78;3.75;;;;;;;15.24;83.78;95719.66;5051636;28;20809;-77
2021/08/22 03:17:05;;;;;;;4.75;3.63;;;;;;;15.25;83.93;95709.03;5033673;28;20249;-78
2021/08/22 03:19:31;;;;;;;4.10;3.60;;;;;;;15.16;83.94;95704.00;5050357;28;20212;-78
2021/08/22 03:21:56;;;;;;;4.28;3.75;;;;;;;15.26;83.60;95707.22;5051048;28;20583;-77
2021/08/22 03:24:21;;;;;;;4.63;3.65;;;;;;;15.19;83.38;95701.03;5051788;28;20174;-78
2021/08/22 03:26:48;;;;;;;4.38;3.83;;;;;;;15.22;83.49;95698.09;5033544;28;20205;-77
2021/08/22 03:29:13;;;;;;;4.55;4.10;;;;;;;15.23;83.24;95700.53;5050120;28;20166;-77
2021/08/22 03:31:38;;;;;;;4.80;4.30;;;;;;;15.23;83.16;95704.97;5050984;28;20186;-77
2021/08/22 03:34:03;;;;;;;4.82;4.07;;;;;;;15.27;82.89;95714.91;5033710;28;20204;-76
2021/08/22 03:36:29;;;;;;;4.53;4.10;;;;;;;15.28;82.71;95713.09;5051378;28;20826;-78
2021/08/22 03:38:54;;;;;;;5.32;4.40;;;;;;;15.28;83.01;95713.09;5051358;28;20233;-77
2021/08/22 03:41:19;;;;;;;5.37;4.53;;;;;;;15.24;83.43;95719.66;5048552;28;20186;-77
2021/08/22 03:43:45;;;;;;;5.05;4.13;;;;;;;15.23;83.69;95726.72;5049948;28;20188;-78
2021/08/22 03:46:10;;;;;;;4.35;3.95;;;;;;;15.36;82.73;95727.94;5051596;28;20182;-77
2021/08/22 03:48:35;;;;;;;5.55;4.22;;;;;;;15.13;83.76;95718.25;5049923;28;20236;-78
2021/08/22 03:51:01;;;;;;;6.15;3.63;;;;;;;15.03;84.73;95720.28;5051406;28;20658;-78
2021/08/22 03:53:26;;;;;;;4.40;3.47;;;;;;;15.00;84.77;95742.34;5049717;28;20181;-77
2021/08/22 03:55:51;;;;;;;5.75;3.15;;;;;;;15.08;84.94;95746.72;5050126;28;20174;-77
2021/08/22 03:58:16;;;;;;;4.50;3.78;;;;;;;14.82;85.67;95754.00;5053052;28;20299;-77
2021/08/22 04:00:42;;;;;;;4.35;3.50;;;;;;;14.73;86.55;95746.19;5053857;28;20170;-78
2021/08/22 04:03:07;;;;;;;4.43;4.03;;;;;;;14.70;86.76;95751.78;5036702;28;20189;-77
2021/08/22 04:05:33;;;;;;;4.85;3.78;;;;;;;14.62;87.08;95749.16;5054081;28;20525;-76
2021/08/22 04:07:59;;;;;;;4.32;3.92;;;;;;;14.59;87.49;95748.69;5053825;28;20283;-78
2021/08/22 04:10:25;;;;;;;4.95;3.60;;;;;;;14.63;87.47;95740.34;5055040;28;20269;-77
2021/08/22 04:12:51;;;;;;;6.83;3.90;;;;;;;14.62;87.11;95749.16;5054168;28;20257;-77
2021/08/22 04:15:16;;;;;;;3.83;3.28;;;;;;;14.65;87.53;95748.81;5054824;28;20759;-78
2021/08/22 04:17:41;;;;;;;5.28;3.55;;;;;;;14.61;87.23;95742.31;5053625;28;20201;-78
2021/08/22 04:20:07;;;;;;;6.30;3.45;;;;;;;14.64;87.20;95749.81;5053462;28;20209;-77
2021/08/22 04:22:36;;;;;;;4.13;3.47;;;;;;;14.61;87.22;95758.00;5053018;28;20185;-77
2021/08/22 04:25:01;;;;;;;5.38;3.40;;;;;;;14.70;87.04;95753.56;5054593;28;20627;-77
2021/08/22 04:27:26;;;;;;;4.35;3.55;;;;;;;14.82;86.33;95746.97;5053150;28;20239;-78
2021/08/22 04:29:52;;;;;;;5.88;3.80;;;;;;;14.81;87.15;95753.19;5053613;28;20170;-77
2021/08/22 04:32:18;;;;;;;4.95;3.92;;;;;;;14.88;86.98;95761.19;5052668;28;20213;-78
2021/08/22 04:34:43;;;;;;;4.80;3.65;;;;;;;14.91;87.06;95759.03;5053413;28;20170;-77
2021/08/22 04:37:09;;;;;;;3.97;3.58;;;;;;;14.92;87.03;95765.91;5052844;28;20202;-77
2021/08/22 04:39:34;;;;;;;4.20;3.50;;;;;;;15.07;86.21;95757.34;5052986;28;20685;-76
2021/08/22 04:41:59;;;;;;;5.20;3.70;;;;;;;15.09;86.65;95758.00;5053726;28;20189;-78
2021/08/22 04:44:25;;;;;;;6.60;3.72;;;;;;;15.20;86.15;95757.63;5036418;28;20177;-77
2021/08/22 04:46:51;;;;;;;6.90;3.85;;;;;;;15.09;86.46;95765.84;5036459;28;20204;-77
2021/08/22 04:49:17;;;;;;;4.20;3.80;;;;;;;15.10;86.77;95772.69;5054284;28;20170;-77
2021/08/22 04:51:42;;;;;;;4.30;3.90;;;;;;;15.05;87.15;95761.94;5053747;28;20227;-77
2021/08/22 04:54:07;;;;;;;4.05;3.65;;;;;;;15.09;87.71;95768.44;5054143;28;20212;-78
2021/08/22 04:56:32;;;;;;;5.13;3.78;;;;;;;15.22;87.39;95779.19;5054543;28;20269;-78
2021/08/22 04:58:58;;;;;;;4.50;3.78;;;;;;;15.30;87.34;95779.16;5052634;28;20198;-78
2021/08/22 05:01:23;;;;;;;6.03;4.03;;;;;;;15.42;86.78;95769.94;5035704;28;20186;-78
2021/08/22 05:03:48;;;;;;;6.15;4.28;;;;;;;15.48;86.72;95771.88;5052707;28;20589;-78
2021/08/22 05:06:14;;;;;;;4.55;4.07;;;;;;;15.57;86.68;95764.78;5053128;28;20186;-78
2021/08/22 05:08:39;;;;;;;5.88;4.25;;;;;;;15.63;86.52;95768.53;5052002;28;20225;-78
2021/08/22 05:11:05;;;;;;;5.22;4.60;;;;;;;15.57;86.89;95768.22;5036058;28;20522;-77
2021/08/22 05:13:31;;;;;;;5.75;4.03;;;;;;;15.66;86.52;95770.81;5052063;28;20177;-78
2021/08/22 05:15:56;;;;;;;5.90;4.18;;;;;;;15.78;86.08;95772.03;5053746;28;20170;-78
2021/08/22 05:18:22;;;;;;;5.82;4.15;;;;;;;15.86;85.80;95769.38;5052435;28;20201;-77
2021/08/22 05:20:47;;;;;;;6.00;4.20;;;;;;;15.86;85.79;95780.66;5035756;28;20181;-78
2021/08/22 05:23:13;;;;;;;6.57;4.03;;;;;;;15.94;85.63;95782.41;5051586;28;20182;-76
2021/08/22 05:25:38;;;;;;;5.50;4.35;;;;;;;16.07;85.48;95787.03;5052258;28;20650;-78
2021/08/22 05:28:04;;;;;;;7.13;4.30;;;;;;;16.05;85.89;95789.84;5052228;28;20204;-78
2021/08/22 05:30:29;;;;;;;6.90;4.70;;;;;;;16.07;85.87;95787.03;5052214;28;20190;-77
2021/08/22 05:32:54;;;;;;;5.18;4.22;;;;;;;16.19;85.36;95782.22;5051516;28;20170;-76
2021/08/22 05:35:20;;;;;;;4.82;4.00;;;;;;;16.22;85.36;95789.72;5051950;28;20185;-77
2021/08/22 05:37:45;;;;;;;4.72;3.88;;;;;;;16.29;85.00;95783.59;5051644;28;20237;-77
2021/08/22 05:40:10;;;;;;;4.20;3.80;;;;;;;16.50;83.90;95785.53;5034092;28;20300;-77
2021/08/22 05:42:35;;;;;;;4.38;3.97;;;;;;;16.52;83.49;95783.56;5051416;28;20269;-78
2021/08/22 05:45:01;;;;;;;4.55;3.78;;;;;;;16.51;83.80;95784.53;5053395;28;20201;-77
2021/08/22 05:47:26;;;;;;;6.60;4.25;;;;;;;16.53;83.20;95789.63;5034981;28;20193;-77
2021/08/22 05:49:52;;;;;;;7.82;4.00;;;;;;;16.56;83.09;95789.25;5051592;28;20223;-77
2021/08/22 05:52:17;;;;;;;5.03;4.40;;;;;;;16.60;83.17;95791.34;5052314;28;20177;-78
2021/08/22 05:54:42;;;;;;;5.57;3.65;;;;;;;16.65;83.01;95786.38;5051771;28;20261;-78
2021/08/22 05:57:08;;;;;;;5.22;3.47;;;;;;;16.73;82.11;95789.94;5052502;28;20213;-76
2021/08/22 05:59:33;;;;;;;4.65;3.92;;;;;;;16.63;82.87;95788.38;5035049;28;20627;-78
2021/08/22 06:01:59;;;;;;;4.55;4.13;;;;;;;16.75;82.48;95798.44;5050939;28;20188;-77
2021/08/22 06:04:25;;;;;;;6.38;4.53;;;;;;;16.78;81.83;95784.97;5051232;28;20215;-76
2021/08/22 06:06:50;;;;;;;5.75;4.35;;;;;;;16.65;82.77;95783.75;5051120;28;20193;-77
2021/08/22 06:09:15;;;;;;;5.18;4.22;;;;;;;16.61;83.02;95790.38;5052476;28;20251;-77
2021/08/22 06:11:41;;;;;;;6.07;4.03;;;;;;;16.55;83.09;95791.06;5051864;28;20177;-77
2021/08/22 06:14:06;;;;;;;6.78;4.50;;;;;;;16.61;82.66;95790.38;5051323;28;20197;-77
2021/08/22 06:16:31;;;;;;;6.15;4.32;;;;;;;16.60;82.78;95793.13;5050619;28;20544;-77
2021/08/22 06:18:58;;;;;;;4.63;4.03;;;;;;;16.58;82.77;95793.31;5034609;28;20205;-76
2021/08/22 06:21:24;;;;;;;5.97;4.32;;;;;;;16.56;83.12;95803.19;5050929;28;20650;-78
2021/08/22 06:23:49;;;;;;;5.75;4.47;;;;;;;16.57;83.39;95809.22;5051880;28;20186;-77
2021/08/22 06:26:14;;;;;;;4.60;4.20;;;;;;;16.47;83.78;95808.69;5051568;28;20194;-76
2021/08/22 06:28:39;;;;;;;5.20;4.45;;;;;;;16.45;83.53;95815.91;5051075;28;20208;-77
2021/08/22 06:31:05;;;;;;;5.93;4.53;;;;;;;16.47;83.60;95813.91;5050552;28;20206;-75
2021/08/22 06:33:30;;;;;;;4.88;4.38;;;;;;;16.60;83.54;95809.69;5033519;28;20185;-76
2021/08/22 06:36:00;;;;;;;4.90;4.40;;;;;;;16.70;83.22;95809.47;5050483;28;20188;-77
2021/08/22 06:38:25;;;;;;;4.80;4.40;;;;;;;16.74;83.14;95805.50;5050181;28;20212;-75
2021/08/22 06:40:51;;;;;;;4.97;3.85;;;;;;;16.82;82.98;95802.78;5051237;28;20174;-75
2021/08/22 06:43:16;;;;;;;6.57;4.30;;;;;;;16.68;82.71;95807.00;5050389;28;20189;-77
2021/08/22 06:45:41;;;;;;;5.43;4.50;;;;;;;16.68;83.85;95799.16;5034919;28;20181;-76
2021/08/22 06:48:07;;;;;;;5.63;4.47;;;;;;;16.76;83.20;95808.75;5052585;28;20661;-75
2021/08/22 06:50:33;;;;;;;4.88;4.32;;;;;;;16.64;83.59;95815.41;5052368;28;20178;-75
2021/08/22 06:52:59;;;;;;;5.65;4.68;;;;;;;16.59;83.62;95805.44;5052014;28;20210;-76
2021/08/22 06:55:24;;;;;;;6.10;4.43;;;;;;;16.60;84.24;95804.44;5045764;28;20185;-76
2021/08/22 06:57:49;;;;;;;7.80;4.85;;;;;;;16.61;84.23;95815.78;5057139;28;20259;-77
2021/08/22 07:00:15;;;;;;;5.88;5.00;;;;;;;16.63;84.17;95817.22;5048440;28;20566;-77
2021/08/22 07:02:41;;;;;;;6.43;4.55;;;;;;;16.60;84.08;95817.53;5050245;28;20217;-78
2021/08/22 07:05:07;;;;;;;7.10;5.13;;;;;;;16.73;83.91;95818.78;5050390;28;20181;-77
2021/08/22 07:07:32;;;;;;;4.43;4.03;;;;;;;16.73;84.12;95813.56;5050934;28;20193;-78
2021/08/22 07:09:58;;;;;;;4.90;4.40;;;;;;;16.76;84.74;95816.63;5035682;28;20181;-78
2021/08/22 07:12:23;;;;;;;5.53;4.70;;;;;;;16.78;84.73;95809.38;5051468;28;20178;-78
2021/08/22 07:14:48;;;;;;;5.32;4.43;;;;;;;16.73;84.95;95813.56;5053443;28;20178;-78
2021/08/22 07:17:17;;;;;;;5.72;4.55;;;;;;;16.81;84.90;95814.28;5033219;28;20232;-76
2021/08/22 07:19:42;;;;;;;6.20;5.03;;;;;;;16.89;85.20;95810.75;5050688;28;20758;-78
2021/08/22 07:22:08;;;;;;;7.30;4.88;;;;;;;17.01;84.88;95811.13;5052854;28;20217;-79
2021/08/22 07:24:33;;;;;;;7.50;5.15;;;;;;;16.92;84.60;95813.84;5055786;28;20178;-77
2021/08/22 07:26:58;;;;;;;5.80;4.57;;;;;;;17.02;84.45;95818.81;5050738;28;20198;-77
2021/08/22 07:29:24;;;;;;;5.88;5.25;;;;;;;17.05;85.07;95817.63;5051141;28;20645;-78
2021/08/22 07:31:49;;;;;;;5.88;5.07;;;;;;;17.10;84.77;95815.28;5053984;28;20196;-78
2021/08/22 07:34:14;;;;;;;5.38;4.72;;;;;;;17.17;84.99;95814.38;5038170;28;20181;-77
2021/08/22 07:36:40;;;;;;;5.72;5.03;;;;;;;17.22;84.19;95824.31;5037446;28;20331;-77
2021/08/22 07:39:05;;;;;;;5.53;4.95;;;;;;;17.50;83.45;95816.63;5053549;28;20206;-79
2021/08/22 07:41:30;;;;;;;5.75;4.75;;;;;;;17.50;84.11;95816.63;5036028;28;20186;-76
2021/08/22 07:43:55;;;;;;;8.65;4.82;;;;;;;17.57;83.71;95828.00;5036868;28;20235;-78
2021/08/22 07:46:21;;;;;;;6.18;5.20;;;;;;;17.70;83.54;95832.63;5036726;28;20178;-77
2021/08/22 07:48:46;;;;;;;5.20;4.70;;;;;;;17.56;83.53;95821.13;5053039;28;20296;-78
2021/08/22 07:51:11;;;;;;;5.60;5.07;;;;;;;17.60;83.55;95825.00;5054282;28;20227;-79
2021/08/22 07:53:37;;;;;;;6.18;5.57;;;;;;;17.69;83.72;95829.16;5052501;28;20185;-77
2021/08/22 07:56:05;;;;;;;8.80;4.60;;;;;;;17.62;83.67;95825.63;5052933;28;20271;-78
2021/08/22 07:58:31;;;;;;;5.03;4.18;;;;;;;17.76;83.75;95837.16;5052572;28;20241;-77
2021/08/22 08:00:56;;;;;;;4.85;4.18;;;;;;;17.76;83.22;95821.41;5052941;28;20774;-77
2021/08/22 08:03:21;;;;;;;5.65;4.55;;;;;;;17.78;83.19;95825.44;5052406;28;20220;-78
2021/08/22 08:05:47;;;;;;;5.38;4.65;;;;;;;17.75;83.23;95833.69;5036035;28;20182;-77
2021/08/22 08:08:12;;;;;;;5.05;4.05;;;;;;;17.76;83.39;95826.66;5052888;28;20775;-78
2021/08/22 08:10:38;;;;;;;4.78;4.38;;;;;;;17.78;83.80;95830.72;5036235;28;20213;-78
2021/08/22 08:13:03;;;;;;;4.70;4.28;;;;;;;17.85;83.12;95824.72;5053259;28;20178;-75
2021/08/22 08:15:28;;;;;;;4.40;4.00;;;;;;;17.80;83.27;95838.41;5035616;28;20202;-76
2021/08/22 08:17:53;;;;;;;7.40;5.05;;;;;;;17.81;83.48;95829.50;5051607;28;20673;-74
2021/08/22 08:20:19;;;;;;;5.88;5.05;;;;;;;17.95;81.79;95823.41;5052138;28;20201;-75
2021/08/22 08:22:45;;;;;;;6.65;4.75;;;;;;;18.32;80.89;95835.50;5051501;28;20277;-76
2021/08/22 08:25:10;;;;;;;5.70;5.10;;;;;;;18.66;79.85;95831.38;5049064;28;20200;-76
2021/08/22 08:27:35;;;;;;;5.43;4.85;;;;;;;18.96;79.00;95837.22;5039403;28;20289;-78
2021/08/22 08:30:01;;;;;;;7.03;5.80;;;;;;;19.11;77.47;95845.03;5034060;28;20178;-77
2021/08/22 08:32:26;;;;;;;6.20;5.60;;;;;;;19.05;76.93;95853.69;5033414;28;20598;-75
2021/08/22 08:34:51;;;;;;;7.43;6.40;;;;;;;18.79;77.06;95849.88;5033254;28;20185;-75
2021/08/22 08:37:17;;;;;;;6.22;5.45;;;;;;;18.90;77.62;95848.50;5033523;28;20685;-78
2021/08/22 08:39:42;;;;;;;5.80;5.03;;;;;;;18.76;78.73;95849.44;5033575;28;20210;-79
2021/08/22 08:42:23;;;;;;;6.22;5.63;;;;;;;18.59;79.37;95852.31;5032154;28;20638;-77
2021/08/22 08:44:54;;;;;;;5.75;5.22;;;;;;;18.51;79.99;95856.88;5034522;28;20181;-78
2021/08/22 08:47:20;;;;;;;6.70;6.00;;;;;;;18.67;79.52;95857.47;5035048;28;20256;-78
2021/08/22 08:49:50;;;;;;;7.07;5.82;;;;;;;18.94;79.08;95858.47;5018775;28;20642;-78
2021/08/22 08:52:34;;;;;;;6.80;5.82;;;;;;;19.29;77.87;95860.31;5033897;28;20379;-78
2021/08/22 08:55:29;;;;;;;6.82;6.13;;;;;;;19.36;76.61;95855.91;5034193;28;20191;-77
2021/08/22 08:57:56;;;;;;;6.75;6.05;;;;;;;19.77;75.86;95863.81;5032920;28;20209;-77
2021/08/22 09:00:34;;;;;;;6.53;5.35;;;;;;;20.07;74.51;95856.44;5033315;28;20206;-77
2021/08/22 09:03:00;;;;;;;6.68;5.95;;;;;;;20.17;72.95;95848.94;5032513;28;20178;-78
2021/08/22 09:06:04;;;;;;;6.90;5.47;;;;;;;20.38;72.33;95851.41;5033322;28;20170;-76
2021/08/22 09:08:54;;;;;;;6.50;5.88;;;;;;;20.51;71.11;95850.66;5031443;28;20221;-78
2021/08/22 09:11:31;;;;;;;6.40;5.80;;;;;;;20.74;70.98;95855.50;5015253;28;20197;-77
2021/08/22 09:14:38;;;;;;;8.45;6.40;;;;;;;20.63;70.73;95856.13;5031764;28;20736;-76
2021/08/22 09:17:19;;;;;;;8.27;5.80;;;;;;;20.30;70.69;95854.22;5030452;28;20339;-79
2021/08/22 09:19:56;;;;;;;8.13;6.35;;;;;;;20.21;71.07;95851.97;5032029;28;20214;-79
2021/08/22 09:22:43;;;;;;;7.43;6.68;;;;;;;20.03;72.33;95853.34;5032538;28;20178;-77
2021/08/22 09:25:36;;;;;;;7.38;6.63;;;;;;;19.95;72.65;95839.53;5035679;28;20193;-78
2021/08/22 09:28:29;;;;;;;6.50;5.90;;;;;;;19.85;72.47;95845.19;5056760;28;20210;-77
2021/08/22 09:31:30;;;;;;;8.35;6.65;;;;;;;19.82;72.88;95840.34;5048435;28;20189;-78
2021/08/22 09:34:33;;;;;;;7.50;6.70;;;;;;;19.84;71.76;95850.66;5049334;28;20734;-76
2021/08/22 09:37:29;;;;;;;8.60;6.28;;;;;;;19.80;72.60;95852.91;5047889;28;20201;-76
2021/08/22 09:40:35;;;;;;;8.57;5.55;;;;;;;19.78;72.76;95857.53;5033671;28;20644;-78
2021/08/22 09:43:37;;;;;;;9.90;6.05;;;;;;;19.88;72.85;95863.28;5038134;28;20177;-78
2021/08/22 09:46:40;;;;;;;5.85;5.25;;;;;;;19.89;72.41;95864.91;5048699;28;20227;-78
2021/08/22 09:49:34;;;;;;;6.80;5.63;;;;;;;19.85;72.31;95862.84;5048395;28;20174;-78
2021/08/22 09:52:44;;;;;;;6.88;5.80;;;;;;;19.67;73.55;95863.38;5049910;28;20174;-79
2021/08/22 09:55:47;;;;;;;7.18;5.78;;;;;;;19.46;74.32;95859.81;5050317;28;20177;-79
2021/08/22 09:58:46;;;;;;;7.18;6.10;;;;;;;19.34;74.90;95853.44;5050078;28;20205;-77
2021/08/22 10:01:42;;;;;;;7.03;6.18;;;;;;;19.42;74.90;95860.38;5031220;28;20566;-76
2021/08/22 10:04:32;;;;;;;6.57;5.75;;;;;;;19.56;74.33;95866.53;5030680;28;20175;-77
2021/08/22 10:07:21;;;;;;;6.88;6.18;;;;;;;19.46;74.43;95862.44;5032173;28;20230;-78
2021/08/22 10:09:55;;;;;;;6.18;5.53;;;;;;;19.47;74.69;95869.34;5032576;28;20174;-78
2021/08/22 10:12:20;;;;;;;6.55;5.95;;;;;;;19.42;74.32;95876.19;5031326;28;20194;-79
2021/08/22 10:14:45;;;;;;;6.95;6.20;;;;;;;19.28;75.46;95885.84;5031546;28;20189;-78
2021/08/22 10:17:24;;;;;;;7.20;6.40;;;;;;;19.08;76.09;95885.72;5047815;28;20209;-78
2021/08/22 10:19:50;;;;;;;7.03;5.55;;;;;;;18.54;77.12;95896.75;5030720;28;20198;-80
2021/08/22 10:22:19;;;;;;;3.75;2.72;;;;;;;18.15;75.17;95899.81;5047502;28;20178;-77
2021/08/22 10:24:48;;;;;;;4.03;2.13;;;;;;;17.71;75.14;95903.34;5031008;28;20205;-78
2021/08/22 10:27:37;;;;;;;3.53;1.90;;;;;;;17.55;74.63;95883.31;5032862;28;20257;-77
2021/08/22 10:30:02;;;;;;;2.35;2.15;;;;;;;17.45;75.68;95880.16;5032948;28;20673;-77
2021/08/22 10:32:32;;;;;;;2.95;2.20;;;;;;;17.37;76.40;95871.56;5029845;28;20187;-78
2021/08/22 10:35:07;;;;;;;2.83;2.30;;;;;;;17.16;76.79;95877.53;5051666;28;20175;-76
2021/08/22 10:37:33;;;;;;;3.42;2.35;;;;;;;17.09;77.77;95868.75;5045814;28;20225;-78
2021/08/22 10:40:21;;;;;;;2.50;1.85;;;;;;;16.76;79.17;95860.38;5032660;28;20213;-77
2021/08/22 10:42:46;;;;;;;2.22;2.00;;;;;;;16.79;78.86;95854.81;5031745;28;20186;-78
2021/08/22 10:45:43;;;;;;;2.53;1.73;;;;;;;16.84;77.73;95857.69;5030859;28;20749;-78
2021/08/22 10:48:11;;;;;;;1.98;1.70;;;;;;;16.94;77.23;95847.75;5032058;28;20674;-78
2021/08/22 10:53:31;;;;;;;2.17;1.95;;;;;;;16.87;76.99;95844.22;5031111;28;20324;-76
2021/08/22 10:55:57;;;;;;;2.22;2.03;;;;;;;16.79;77.79;95853.00;5046346;28;20257;-77
2021/08/22 10:59:03;;;;;;;3.22;2.05;;;;;;;16.82;77.21;95849.19;5031116;28;20218;-77
2021/08/22 11:01:33;;;;;;;3.08;2.30;;;;;;;16.68;79.07;95848.97;5029883;28;20204;-78
2021/08/22 11:04:11;;;;;;;2.78;2.25;;;;;;;16.67;79.60;95857.81;5041449;28;20185;-78
2021/08/22 11:06:56;;;;;;;2.95;2.28;;;;;;;16.46;79.76;95860.28;5033396;28;20661;-77
2021/08/22 11:09:43;;;;;;;2.92;2.40;;;;;;;16.51;80.63;95862.38;5031170;28;20174;-78
2021/08/22 11:12:38;;;;;;;2.55;2.35;;;;;;;16.58;80.79;95861.47;5029198;28;20171;-77
2021/08/22 11:15:06;;;;;;;2.85;2.03;;;;;;;16.68;80.00;95869.94;5028519;28;20273;-77
2021/08/22 11:17:32;;;;;;;3.47;2.20;;;;;;;16.49;81.36;95875.66;5011852;28;20206;-78
2021/08/22 11:20:14;;;;;;;4.97;2.13;;;;;;;16.50;82.09;95879.09;5012161;28;20578;-78
2021/08/22 11:22:39;;;;;;;3.65;2.55;;;;;;;16.33;83.11;95873.97;5011637;28;20185;-78
2021/08/22 11:25:07;;;;;;;2.55;2.33;;;;;;;16.37;82.92;95882.31;4995484;28;20191;-78
2021/08/22 11:27:32;;;;;;;3.10;2.20;;;;;;;16.22;83.58;95868.31;5012128;28;20204;-79
2021/08/22 11:29:59;;;;;;;2.42;2.22;;;;;;;16.32;83.45;95868.91;5011767;28;20167;-77
2021/08/22 11:32:25;;;;;;;3.03;2.20;;;;;;;16.31;83.50;95862.03;5011345;28;20689;-78
2021/08/22 11:34:51;;;;;;;4.28;2.20;;;;;;;16.34;83.19;95866.91;5012254;28;20583;-78
2021/08/22 11:37:18;;;;;;;2.67;1.80;;;;;;;16.32;84.09;95861.03;5006222;28;20231;-78
2021/08/22 11:39:43;;;;;;;4.22;2.17;;;;;;;16.32;83.62;95856.63;5022522;28;20221;-78
2021/08/22 11:42:09;;;;;;;3.10;1.90;;;;;;;16.28;83.56;95847.50;5040597;28;20173;-77
2021/08/22 11:44:35;;;;;;;3.17;1.95;;;;;;;16.38;83.80;95857.72;5049329;28;20186;-77
2021/08/22 11:47:01;;;;;;;2.40;2.00;;;;;;;16.31;84.00;95856.78;5048597;28;20209;-77